Time;durP1;ratioP1;P1;durP2;ratioP2;P2;SDS_P1;SDS_P2;PMS_P1;PMS_P2;Temp;Humidity;BMP_temperature;BMP_pressure;BME280_temperature;BME280_humidity;BME280_pressure;Samples;Min_cycle;Max_cycle;Signal;HPM_P1;HPM_P2
2022/11/10 00:00:27;;;;;;;9.57;3.20;;;10.50;99.90;;;;;;5053341;28;20202;-87
2022/11/10 00:02:54;;;;;;;10.17;3.13;;;10.40;99.90;;;;;;5053062;28;20202;-87
2022/11/10 00:05:24;;;;;;;10.27;3.70;;;10.50;99.90;;;;;;5053243;28;20642;-87
2022/11/10 00:07:53;;;;;;;7.80;3.00;;;10.40;99.90;;;;;;5052981;28;20229;-86
2022/11/10 00:10:22;;;;;;;7.23;2.97;;;10.40;99.90;;;;;;5053432;28;20194;-86
2022/11/10 00:12:48;;;;;;;9.97;2.87;;;10.40;99.90;;;;;;5057093;28;20199;-87
2022/11/10 00:18:01;;;;;;;13.13;3.65;;;10.40;99.90;;;;;;5057049;28;20946;-87
2022/11/10 00:20:30;;;;;;;12.40;3.63;;;10.50;99.90;;;;;;5039968;28;20213;-86
2022/11/10 00:22:57;;;;;;;14.60;3.63;;;10.40;99.90;;;;;;5056487;28;20206;-86
2022/11/10 00:25:27;;;;;;;12.47;3.67;;;10.40;99.90;;;;;;5057128;28;20191;-87
2022/11/10 00:27:54;;;;;;;10.10;3.50;;;10.40;99.90;;;;;;5056808;28;20202;-87
2022/11/10 00:30:22;;;;;;;8.93;2.77;;;10.50;99.90;;;;;;5056988;28;20213;-88
2022/11/10 00:32:51;;;;;;;9.93;3.20;;;10.50;99.90;;;;;;5057126;28;20205;-87
2022/11/10 00:35:23;;;;;;;8.70;3.70;;;10.50;99.90;;;;;;5057214;28;20191;-87
2022/11/10 00:37:51;;;;;;;14.90;3.17;;;10.60;99.90;;;;;;5056159;28;20226;-87
2022/11/10 00:40:23;;;;;;;11.27;3.27;;;10.60;99.90;;;;;;5056577;28;20340;-85
2022/11/10 00:42:51;;;;;;;11.73;3.50;;;10.60;99.90;;;;;;5056655;28;20213;-86
2022/11/10 00:45:18;;;;;;;10.83;3.27;;;10.70;99.90;;;;;;5056841;28;20199;-86
2022/11/10 00:47:45;;;;;;;11.13;3.17;;;10.80;99.90;;;;;;5056843;28;20202;-86
2022/11/10 00:50:18;;;;;;;10.80;3.30;;;10.80;99.90;;;;;;5056233;28;20384;-87
2022/11/10 00:52:45;;;;;;;14.23;3.23;;;10.70;99.90;;;;;;5056530;28;20207;-87
2022/11/10 00:55:14;;;;;;;9.20;3.03;;;10.70;99.90;;;;;;5056313;28;20206;-87
2022/11/10 00:57:42;;;;;;;10.17;2.93;;;10.60;99.90;;;;;;5056506;28;20253;-87
2022/11/10 01:00:11;;;;;;;12.80;4.40;;;10.60;99.90;;;;;;5056704;28;20203;-87
2022/11/10 01:02:40;;;;;;;9.37;3.27;;;10.60;99.90;;;;;;5056704;28;20206;-87
2022/11/10 01:05:07;;;;;;;14.37;3.37;;;10.50;99.90;;;;;;5056206;28;20191;-86
2022/11/10 01:07:34;;;;;;;8.63;2.80;;;10.60;99.90;;;;;;5055928;28;20223;-87
2022/11/10 01:10:01;;;;;;;11.10;3.03;;;10.50;99.90;;;;;;5056084;28;20653;-86
2022/11/10 01:12:29;;;;;;;10.80;3.07;;;10.40;99.90;;;;;;5056296;28;20552;-87
2022/11/10 01:14:56;;;;;;;10.07;2.90;;;10.30;99.90;;;;;;5051670;28;20198;-87
2022/11/10 01:17:29;;;;;;;9.10;2.70;;;10.30;99.90;;;;;;5055507;28;20202;-86
2022/11/10 01:19:56;;;;;;;10.20;2.73;;;10.30;99.90;;;;;;5038340;28;20206;-87
2022/11/10 01:22:29;;;;;;;15.97;3.43;;;10.20;99.90;;;;;;5054975;28;20214;-87
2022/11/10 01:25:01;;;;;;;11.10;3.00;;;10.20;99.90;;;;;;5055835;28;20207;-87
2022/11/10 01:27:28;;;;;;;10.93;3.00;;;10.20;99.90;;;;;;5056066;28;20207;-88
2022/11/10 01:29:55;;;;;;;9.97;2.80;;;10.20;99.90;;;;;;5055877;28;20203;-87
2022/11/10 01:32:26;;;;;;;11.80;3.63;;;10.20;99.90;;;;;;5055846;28;20202;-88
2022/11/10 01:34:53;;;;;;;11.93;3.57;;;10.20;99.90;;;;;;5055140;28;20441;-87
2022/11/10 01:37:20;;;;;;;14.27;3.77;;;10.10;99.90;;;;;;5055891;28;20658;-88
2022/11/10 01:39:47;;;;;;;15.07;3.77;;;10.20;99.90;;;;;;5055236;28;20234;-87
2022/11/10 01:42:22;;;;;;;11.57;2.90;;;10.10;99.90;;;;;;5055493;28;20210;-86
2022/11/10 01:45:22;;;;;;;9.63;3.43;;;10.10;99.90;;;;;;5055853;28;20210;-87
2022/11/10 01:47:55;;;;;;;13.33;3.40;;;10.20;99.90;;;;;;5055781;28;20195;-87
2022/11/10 01:50:26;;;;;;;17.90;4.07;;;10.20;99.90;;;;;;5055174;28;20206;-86
2022/11/10 01:52:56;;;;;;;16.03;4.27;;;10.20;99.90;;;;;;5055470;28;20206;-87
2022/11/10 01:55:24;;;;;;;16.13;4.20;;;10.20;99.90;;;;;;5055426;28;20195;-87
2022/11/10 01:57:52;;;;;;;14.40;4.10;;;10.20;99.90;;;;;;5055726;28;20688;-88
2022/11/10 02:00:25;;;;;;;15.37;3.97;;;10.20;99.90;;;;;;5055592;28;20198;-88
2022/11/10 02:03:01;;;;;;;17.27;4.43;;;10.20;99.90;;;;;;5055552;28;20195;-88
2022/11/10 02:05:28;;;;;;;12.23;3.50;;;10.10;99.90;;;;;;5055093;28;20203;-87
2022/11/10 02:07:56;;;;;;;11.43;3.90;;;10.10;99.90;;;;;;5054912;28;20230;-87
2022/11/10 02:10:23;;;;;;;16.83;3.70;;;10.00;99.90;;;;;;5054904;28;20199;-87
2022/11/10 02:12:50;;;;;;;14.50;3.93;;;10.00;99.90;;;;;;5037161;28;20210;-86
2022/11/10 02:15:19;;;;;;;16.37;3.60;;;10.00;99.90;;;;;;5054860;28;20209;-87
2022/11/10 02:17:47;;;;;;;12.70;4.40;;;10.00;99.90;;;;;;5054710;28;20207;-86
2022/11/10 02:20:19;;;;;;;15.03;4.00;;;10.00;99.90;;;;;;5054407;28;20207;-86
2022/11/10 02:22:47;;;;;;;17.40;4.63;;;10.00;99.90;;;;;;5053559;28;20437;-87
2022/11/10 02:25:20;;;;;;;13.07;3.53;;;10.00;99.90;;;;;;5054655;28;20210;-86
2022/11/10 02:27:47;;;;;;;14.23;3.43;;;10.00;99.90;;;;;;5055029;28;20191;-89
2022/11/10 02:30:16;;;;;;;11.47;3.47;;;10.00;99.90;;;;;;5054962;28;20582;-87
2022/11/10 02:32:44;;;;;;;14.30;3.07;;;10.00;99.90;;;;;;5054489;28;20228;-88
2022/11/10 02:35:13;;;;;;;13.33;3.70;;;9.90;99.90;;;;;;5053559;28;20198;-88
2022/11/10 02:37:47;;;;;;;10.37;3.23;;;9.80;99.90;;;;;;5054368;28;20692;-89
2022/11/10 02:40:14;;;;;;;13.23;3.20;;;9.80;99.90;;;;;;5054587;28;20581;-88
2022/11/10 02:42:40;;;;;;;11.63;3.10;;;9.70;99.90;;;;;;5054080;28;20198;-88
2022/11/10 02:45:08;;;;;;;17.00;3.50;;;9.70;99.90;;;;;;5054319;28;20190;-87
2022/11/10 02:47:35;;;;;;;13.70;3.80;;;9.70;99.90;;;;;;5054307;28;20191;-87
2022/11/10 02:50:01;;;;;;;11.93;3.10;;;9.70;99.90;;;;;;5054422;28;20190;-87
2022/11/10 02:52:29;;;;;;;9.17;3.13;;;9.80;99.90;;;;;;5054204;28;20198;-88
2022/11/10 02:54:58;;;;;;;12.50;3.27;;;9.70;99.90;;;;;;5054192;28;20205;-87
2022/11/10 02:57:24;;;;;;;11.40;3.20;;;9.70;99.90;;;;;;5054585;28;20245;-89
2022/11/10 02:59:51;;;;;;;14.30;3.70;;;9.60;99.90;;;;;;5054587;28;20237;-88
2022/11/10 03:02:24;;;;;;;10.80;3.27;;;9.60;99.90;;;;;;5053692;28;20646;-88
2022/11/10 03:04:52;;;;;;;21.40;4.43;;;9.60;99.90;;;;;;5054454;28;20217;-88
2022/11/10 03:07:21;;;;;;;9.50;3.03;;;9.70;99.90;;;;;;5054212;28;20233;-88
2022/11/10 03:09:51;;;;;;;17.23;3.97;;;9.90;99.90;;;;;;5054022;28;20190;-87
2022/11/10 03:12:19;;;;;;;10.13;3.27;;;9.80;99.90;;;;;;5053816;28;20206;-88
2022/11/10 03:14:46;;;;;;;16.77;3.80;;;9.90;99.90;;;;;;5053943;28;20210;-88
2022/11/10 03:17:18;;;;;;;11.73;3.80;;;9.90;99.90;;;;;;5053786;28;20198;-88
2022/11/10 03:19:45;;;;;;;15.97;3.50;;;9.90;99.90;;;;;;5053800;28;20230;-87
2022/11/10 03:22:13;;;;;;;11.53;3.23;;;9.90;99.90;;;;;;5053566;28;20679;-88
2022/11/10 03:24:41;;;;;;;12.87;3.90;;;9.90;99.90;;;;;;5053867;28;20209;-89
2022/11/10 03:27:09;;;;;;;10.93;3.60;;;9.90;99.90;;;;;;5053724;28;20222;-88
2022/11/10 03:29:39;;;;;;;11.60;3.30;;;9.80;99.90;;;;;;5053954;28;20190;-88
2022/11/10 03:32:07;;;;;;;6.93;2.70;;;9.80;99.90;;;;;;5053701;28;20195;-88
2022/11/10 03:34:33;;;;;;;12.17;3.50;;;9.70;99.90;;;;;;5054124;28;20202;-88
2022/11/10 03:37:00;;;;;;;16.47;2.93;;;9.70;99.90;;;;;;5053662;28;20236;-89
2022/11/10 03:39:28;;;;;;;11.77;2.90;;;9.70;99.90;;;;;;5056003;28;20233;-89
2022/11/10 03:41:55;;;;;;;12.80;3.00;;;9.70;99.90;;;;;;5056839;28;20660;-88
2022/11/10 03:44:22;;;;;;;17.60;3.33;;;9.70;99.90;;;;;;5057225;28;20221;-86
2022/11/10 03:46:51;;;;;;;15.97;3.60;;;9.70;99.90;;;;;;5040492;28;20202;-88
2022/11/10 03:49:18;;;;;;;10.27;3.10;;;9.60;99.90;;;;;;5059663;28;20213;-88
2022/11/10 03:51:46;;;;;;;15.50;3.47;;;9.60;99.90;;;;;;5054747;28;20197;-88
2022/11/10 03:54:13;;;;;;;12.07;3.20;;;9.60;99.90;;;;;;5059543;28;20205;-88
2022/11/10 03:56:41;;;;;;;8.73;2.53;;;9.60;99.90;;;;;;5056127;28;20209;-88
2022/11/10 03:59:08;;;;;;;14.40;3.00;;;9.60;99.90;;;;;;5053609;28;20222;-88
2022/11/10 04:01:36;;;;;;;12.77;3.30;;;9.60;99.90;;;;;;5053431;28;20207;-88
2022/11/10 04:08:57;;;;;;;18.00;3.40;;;9.70;99.90;;;;;;5053178;28;20198;-88
2022/11/10 04:09:37;;;;;;;8.77;3.00;;;9.70;99.90;;;;;;5053604;28;20228;-88
2022/11/10 04:17:37;;;;;;;11.30;2.90;;;9.70;99.90;;;;;;5053166;28;20228;-88
2022/11/10 04:20:09;;;;;;;15.10;3.27;;;9.70;99.90;;;;;;5053514;28;20230;-88
2022/11/10 04:25:20;;;;;;;13.13;3.23;;;9.80;99.90;;;;;;5058621;28;20724;-87
2022/11/10 04:27:47;;;;;;;16.02;3.42;;;9.70;99.90;;;;;;5057710;28;20426;-88
2022/11/10 04:30:14;;;;;;;8.27;2.50;;;9.70;99.90;;;;;;5058753;28;20214;-87
2022/11/10 04:32:40;;;;;;;12.30;2.60;;;9.70;99.90;;;;;;5059021;28;20214;-87
2022/11/10 04:35:09;;;;;;;12.10;2.93;;;9.70;99.90;;;;;;5060944;28;20649;-87
2022/11/10 04:37:37;;;;;;;17.17;3.47;;;9.70;99.90;;;;;;5059725;28;20214;-87
2022/11/10 04:40:05;;;;;;;11.13;2.93;;;9.70;99.90;;;;;;5058915;28;20617;-87
2022/11/10 04:42:32;;;;;;;13.47;2.93;;;9.80;99.90;;;;;;5054690;28;20210;-88
2022/11/10 04:44:58;;;;;;;12.03;2.80;;;9.70;99.90;;;;;;5053538;28;20199;-88
2022/11/10 04:47:25;;;;;;;17.90;3.50;;;9.70;99.90;;;;;;5053946;28;20187;-87
2022/11/10 04:49:52;;;;;;;11.90;3.03;;;9.70;99.90;;;;;;5053327;28;20206;-88
2022/11/10 04:52:20;;;;;;;11.07;3.33;;;9.60;99.90;;;;;;5053303;28;20202;-88
2022/11/10 04:54:47;;;;;;;9.10;2.90;;;9.60;99.90;;;;;;5053390;28;20203;-88
2022/11/10 04:57:14;;;;;;;17.97;3.87;;;9.60;99.90;;;;;;5053077;28;20194;-88
2022/11/10 04:59:40;;;;;;;12.37;2.83;;;9.50;99.90;;;;;;5055927;28;20230;-85
2022/11/10 05:02:08;;;;;;;12.30;3.03;;;9.50;99.90;;;;;;5056164;28;20210;-87
2022/11/10 05:04:35;;;;;;;11.50;2.67;;;9.40;99.90;;;;;;5056499;28;20198;-87
2022/11/10 05:07:02;;;;;;;13.67;4.30;;;9.40;99.90;;;;;;5056222;28;20234;-87
2022/11/10 05:09:30;;;;;;;13.43;2.80;;;9.30;99.90;;;;;;5056065;28;20210;-86
2022/11/10 05:11:59;;;;;;;21.93;3.63;;;9.40;99.90;;;;;;5038297;28;20209;-88
2022/11/10 05:14:25;;;;;;;15.70;3.40;;;9.30;99.90;;;;;;5055543;28;20202;-88
2022/11/10 05:16:52;;;;;;;10.03;2.87;;;9.30;99.90;;;;;;5056259;28;20191;-88
2022/11/10 05:19:21;;;;;;;11.80;3.37;;;9.30;99.90;;;;;;5055940;28;20215;-87
2022/11/10 05:21:50;;;;;;;19.73;3.33;;;9.30;99.90;;;;;;5056164;28;20206;-88
2022/11/10 05:24:17;;;;;;;13.20;3.53;;;9.30;99.90;;;;;;5055981;28;20190;-87
2022/11/10 05:26:47;;;;;;;15.87;4.07;;;9.30;99.90;;;;;;5055520;28;20205;-85
2022/11/10 05:29:14;;;;;;;12.17;3.40;;;9.30;99.90;;;;;;5055573;28;20214;-87
2022/11/10 05:31:41;;;;;;;16.60;4.53;;;9.30;99.90;;;;;;5055725;28;20209;-87
2022/11/10 05:34:14;;;;;;;13.23;3.47;;;9.20;99.90;;;;;;5055779;28;20201;-87
2022/11/10 05:36:40;;;;;;;17.77;3.87;;;9.10;99.90;;;;;;5055311;28;21028;-87
2022/11/10 05:39:07;;;;;;;20.20;5.03;;;9.10;99.90;;;;;;5055638;28;20214;-88
2022/11/10 05:41:34;;;;;;;10.43;3.37;;;9.20;99.90;;;;;;5055300;28;20213;-87
2022/11/10 05:44:02;;;;;;;15.00;3.80;;;9.10;99.90;;;;;;5055594;28;20744;-87
2022/11/10 05:46:30;;;;;;;14.53;3.80;;;9.10;99.90;;;;;;5055157;28;20569;-87
2022/11/10 05:48:57;;;;;;;15.57;3.57;;;9.10;99.90;;;;;;5055672;28;20199;-87
2022/11/10 05:51:24;;;;;;;15.93;3.60;;;9.00;99.90;;;;;;5055195;28;20681;-87
2022/11/10 05:53:53;;;;;;;12.50;3.63;;;9.10;99.90;;;;;;5055794;28;20211;-88
2022/11/10 05:56:20;;;;;;;16.37;3.63;;;9.10;99.90;;;;;;5054956;28;20198;-87
2022/11/10 05:58:46;;;;;;;12.83;3.43;;;9.00;99.90;;;;;;5055258;28;20210;-88
2022/11/10 06:01:17;;;;;;;19.85;5.07;;;9.00;99.90;;;;;;5048757;28;20451;-87
2022/11/10 06:03:43;;;;;;;12.30;3.97;;;9.00;99.90;;;;;;5047551;28;20666;-88
2022/11/10 06:06:10;;;;;;;17.50;4.20;;;8.90;99.90;;;;;;5054315;28;20226;-88
2022/11/10 06:08:37;;;;;;;15.57;3.73;;;8.90;99.90;;;;;;5037326;28;20210;-89
2022/11/10 06:11:06;;;;;;;17.17;4.30;;;8.90;99.90;;;;;;5054823;28;20210;-87
2022/11/10 06:13:34;;;;;;;13.20;4.07;;;8.80;99.90;;;;;;5054471;28;20234;-88
2022/11/10 06:16:01;;;;;;;16.53;4.10;;;8.90;99.90;;;;;;5053644;28;20209;-86
2022/11/10 06:18:29;;;;;;;8.10;3.93;;;9.00;99.90;;;;;;5048526;28;20205;-86
2022/11/10 06:20:55;;;;;;;14.53;3.63;;;9.00;99.90;;;;;;5044494;28;20237;-88
2022/11/10 06:23:23;;;;;;;17.17;3.90;;;9.00;99.90;;;;;;5054706;28;20203;-87
2022/11/10 06:25:50;;;;;;;15.27;4.10;;;9.00;99.90;;;;;;5054055;28;20214;-88
2022/11/10 06:28:17;;;;;;;15.67;3.90;;;9.00;99.90;;;;;;5052814;28;20205;-89
2022/11/10 06:30:45;;;;;;;14.97;4.40;;;9.00;99.90;;;;;;5054022;28;20200;-89
2022/11/10 06:33:11;;;;;;;13.43;3.90;;;8.90;99.90;;;;;;5054818;28;20202;-89
2022/11/10 06:35:41;;;;;;;18.60;4.20;;;9.00;99.90;;;;;;5054366;28;20190;-89
2022/11/10 06:38:10;;;;;;;15.40;3.80;;;9.10;99.90;;;;;;5053972;28;20556;-88
2022/11/10 06:40:37;;;;;;;11.43;3.93;;;9.00;99.90;;;;;;5053748;28;20230;-89
2022/11/10 06:43:04;;;;;;;17.33;5.13;;;9.00;99.90;;;;;;5053826;28;20672;-88
2022/11/10 06:45:32;;;;;;;15.57;3.97;;;8.90;99.90;;;;;;5054518;28;20233;-89
2022/11/10 06:48:01;;;;;;;17.20;4.57;;;9.00;99.90;;;;;;5054688;28;20368;-86
2022/11/10 06:50:29;;;;;;;15.87;4.00;;;9.00;99.90;;;;;;5054366;28;20203;-89
2022/11/10 06:52:59;;;;;;;17.53;3.77;;;8.90;99.90;;;;;;5058896;28;20221;-89
2022/11/10 06:55:28;;;;;;;15.77;4.00;;;8.90;99.90;;;;;;5053774;28;20198;-89
2022/11/10 06:57:55;;;;;;;12.10;4.07;;;8.90;99.90;;;;;;5054153;28;20210;-88
2022/11/10 07:00:22;;;;;;;19.60;4.43;;;8.90;99.90;;;;;;5053983;28;20248;-89
2022/11/10 07:02:58;;;;;;;17.13;4.13;;;8.90;99.90;;;;;;5053658;28;20589;-88
2022/11/10 07:05:26;;;;;;;19.73;4.10;;;9.00;99.90;;;;;;5053575;28;20587;-88
2022/11/10 07:07:54;;;;;;;15.33;4.47;;;9.00;99.90;;;;;;5052964;28;20223;-88
2022/11/10 07:10:22;;;;;;;16.07;4.93;;;9.00;99.90;;;;;;5046481;28;20204;-88
2022/11/10 07:12:56;;;;;;;12.47;4.03;;;9.00;99.90;;;;;;5050416;28;20206;-88
2022/11/10 07:15:23;;;;;;;13.63;3.97;;;9.10;99.90;;;;;;5047691;28;20608;-88
2022/11/10 07:17:49;;;;;;;15.10;3.87;;;9.00;99.90;;;;;;5053629;28;20210;-89
2022/11/10 07:20:16;;;;;;;13.63;3.53;;;9.00;99.90;;;;;;5052508;28;20590;-88
2022/11/10 07:22:43;;;;;;;19.60;3.80;;;9.10;99.90;;;;;;5053135;28;20194;-88
2022/11/10 07:25:11;;;;;;;15.63;4.30;;;9.00;99.90;;;;;;5053338;28;20203;-88
2022/11/10 07:27:39;;;;;;;15.93;3.90;;;9.10;99.90;;;;;;5055269;28;20198;-88
2022/11/10 07:30:08;;;;;;;13.90;4.87;;;9.20;99.90;;;;;;5053389;28;20209;-89
2022/11/10 07:32:35;;;;;;;14.52;4.55;;;9.10;99.90;;;;;;5052583;28;20772;-88
2022/11/10 07:35:02;;;;;;;13.20;4.03;;;9.20;99.90;;;;;;5053343;28;20210;-88
2022/11/10 07:37:35;;;;;;;13.83;4.13;;;9.10;99.90;;;;;;5052542;28;20225;-88
2022/11/10 07:40:03;;;;;;;15.67;4.23;;;9.10;99.90;;;;;;5055881;28;20223;-88
2022/11/10 07:42:30;;;;;;;16.30;4.30;;;9.10;99.90;;;;;;5056108;28;20535;-89
2022/11/10 07:44:58;;;;;;;12.53;4.67;;;9.10;99.90;;;;;;5052261;28;20221;-87
2022/11/10 07:47:25;;;;;;;16.97;4.73;;;9.20;99.90;;;;;;5055512;28;20202;-88
2022/11/10 07:49:53;;;;;;;13.80;4.50;;;9.20;99.90;;;;;;5053345;28;20202;-88
2022/11/10 07:52:19;;;;;;;10.00;4.60;;;9.20;99.90;;;;;;5040073;28;20564;-88
2022/11/10 07:54:46;;;;;;;16.10;4.50;;;9.30;99.90;;;;;;5053029;28;20199;-87
2022/11/10 07:57:13;;;;;;;14.80;5.37;;;9.30;99.90;;;;;;5055681;28;20198;-88
2022/11/10 07:59:41;;;;;;;13.57;4.23;;;9.40;99.90;;;;;;5054271;28;20202;-88
2022/11/10 08:02:11;;;;;;;12.13;4.27;;;9.40;99.90;;;;;;5058907;28;20197;-89
2022/11/10 08:04:39;;;;;;;15.87;4.43;;;9.30;99.90;;;;;;5059741;28;20286;-89
2022/11/10 08:07:06;;;;;;;16.17;5.27;;;9.40;99.90;;;;;;5051578;28;20226;-87
2022/11/10 08:09:35;;;;;;;19.27;4.57;;;9.40;99.90;;;;;;5044281;28;20206;-90
2022/11/10 08:12:03;;;;;;;21.10;4.20;;;9.40;99.90;;;;;;5046196;28;20670;-88
2022/11/10 08:14:30;;;;;;;14.03;4.03;;;9.40;99.90;;;;;;5051506;28;20202;-88
2022/11/10 08:16:58;;;;;;;13.43;4.10;;;9.50;99.90;;;;;;5053082;28;20202;-89
2022/11/10 08:19:26;;;;;;;12.83;3.80;;;9.50;99.90;;;;;;5035683;28;20206;-85
2022/11/10 08:21:55;;;;;;;13.10;3.93;;;9.60;99.90;;;;;;5052940;28;20218;-88
2022/11/10 08:24:22;;;;;;;10.83;4.13;;;9.60;99.90;;;;;;5053531;28;20199;-89
2022/11/10 08:26:50;;;;;;;12.63;4.40;;;9.70;99.90;;;;;;5053200;28;20217;-88
2022/11/10 08:29:17;;;;;;;13.70;4.17;;;9.80;99.90;;;;;;5052544;28;20206;-89
2022/11/10 08:31:43;;;;;;;8.57;3.93;;;9.90;99.90;;;;;;5059116;28;20206;-89
2022/11/10 08:34:11;;;;;;;14.90;3.90;;;9.90;99.90;;;;;;5057411;28;20201;-89
2022/11/10 08:36:40;;;;;;;18.53;4.30;;;9.90;99.90;;;;;;5056482;28;20268;-90
2022/11/10 08:39:07;;;;;;;15.47;3.87;;;10.00;99.90;;;;;;5056770;28;20202;-89
2022/11/10 08:41:33;;;;;;;11.97;3.80;;;10.00;99.90;;;;;;5056080;28;20225;-90
2022/11/10 08:44:00;;;;;;;16.97;4.33;;;10.00;99.90;;;;;;5056648;28;20195;-89
2022/11/10 08:46:27;;;;;;;14.43;3.70;;;10.00;99.90;;;;;;5056989;28;20239;-89
2022/11/10 08:48:54;;;;;;;17.73;4.77;;;10.10;99.90;;;;;;5056740;28;20210;-90
2022/11/10 08:51:21;;;;;;;12.03;3.43;;;10.20;99.90;;;;;;5056513;28;20646;-89
2022/11/10 08:53:49;;;;;;;15.53;4.10;;;10.30;99.90;;;;;;5056574;28;20206;-89
2022/11/10 08:56:16;;;;;;;12.07;3.90;;;10.30;99.90;;;;;;5056645;28;20213;-89
2022/11/10 08:58:42;;;;;;;14.60;3.63;;;10.30;99.90;;;;;;5056831;28;20203;-89
2022/11/10 09:01:10;;;;;;;11.13;3.73;;;10.30;99.90;;;;;;5056603;28;20237;-89
2022/11/10 09:03:37;;;;;;;15.77;3.67;;;10.50;99.90;;;;;;5056321;28;20260;-89
2022/11/10 09:06:04;;;;;;;20.50;4.97;;;10.50;99.90;;;;;;5055268;28;20943;-90
2022/11/10 09:08:32;;;;;;;16.47;4.00;;;10.60;99.90;;;;;;5056444;28;20203;-89
2022/11/10 09:11:02;;;;;;;14.80;3.90;;;10.70;99.90;;;;;;5059240;28;20722;-89
2022/11/10 09:13:29;;;;;;;20.40;4.17;;;10.70;99.90;;;;;;5058465;28;20649;-89
2022/11/10 09:15:56;;;;;;;11.60;3.37;;;10.80;99.90;;;;;;5056329;28;20207;-89
2022/11/10 09:18:23;;;;;;;22.77;4.90;;;10.90;99.90;;;;;;5058799;28;20209;-90
2022/11/10 09:20:50;;;;;;;11.53;3.37;;;11.00;99.90;;;;;;5055846;28;20226;-89
2022/11/10 09:23:18;;;;;;;16.97;4.07;;;11.00;99.90;;;;;;5039920;28;20218;-89
2022/11/10 09:25:52;;;;;;;16.50;4.83;;;11.10;99.90;;;;;;5055908;28;20573;-89
2022/11/10 09:28:21;;;;;;;12.57;3.20;;;11.10;99.90;;;;;;5056070;28;20205;-88
2022/11/10 09:30:49;;;;;;;10.83;3.87;;;11.20;99.90;;;;;;5055790;28;20199;-90
2022/11/10 09:33:16;;;;;;;14.43;3.10;;;11.20;99.90;;;;;;5055999;28;20203;-89
2022/11/10 09:35:43;;;;;;;11.47;3.73;;;11.30;99.90;;;;;;5055233;28;20429;-90
2022/11/10 09:38:10;;;;;;;11.80;3.80;;;11.40;99.90;;;;;;5056090;28;20459;-90
2022/11/10 09:40:49;;;;;;;14.20;3.73;;;11.40;99.90;;;;;;5055834;28;20227;-89
2022/11/10 09:43:23;;;;;;;9.47;2.70;;;11.60;99.90;;;;;;5055599;28;20215;-89
2022/11/10 09:45:53;;;;;;;9.07;3.23;;;11.60;99.90;;;;;;5055663;28;20198;-90
2022/11/10 09:48:25;;;;;;;15.13;3.30;;;11.60;99.90;;;;;;5055556;28;20205;-89
2022/11/10 09:50:57;;;;;;;12.93;4.03;;;11.70;99.90;;;;;;5055822;28;20212;-89
2022/11/10 09:53:27;;;;;;;14.63;3.60;;;11.70;99.90;;;;;;5055529;28;20671;-89
2022/11/10 09:55:58;;;;;;;9.57;3.83;;;11.70;99.90;;;;;;5055325;28;20562;-90
2022/11/10 09:58:33;;;;;;;16.53;3.33;;;11.80;99.90;;;;;;5055324;28;20661;-88
2022/11/10 10:01:08;;;;;;;12.47;3.53;;;11.90;99.90;;;;;;5055268;28;20226;-89
2022/11/10 10:03:39;;;;;;;16.30;2.97;;;12.10;99.90;;;;;;5055321;28;20208;-90
2022/11/10 10:06:10;;;;;;;15.77;3.60;;;12.10;99.90;;;;;;5055134;28;20228;-89
2022/11/10 10:08:59;;;;;;;9.03;2.87;;;12.20;99.90;;;;;;5055486;28;20204;-90
2022/11/10 10:11:36;;;;;;;9.30;2.77;;;12.30;99.90;;;;;;5055218;28;20215;-87
2022/11/10 10:14:21;;;;;;;12.37;2.90;;;12.40;99.90;;;;;;5055500;28;20338;-86
2022/11/10 10:16:59;;;;;;;12.33;2.50;;;12.50;99.90;;;;;;5055217;28;20236;-87
2022/11/10 10:19:37;;;;;;;10.27;2.70;;;12.60;99.90;;;;;;5055215;28;20218;-88
2022/11/10 10:22:45;;;;;;;13.23;3.37;;;12.70;99.90;;;;;;5054953;28;20234;-87
2022/11/10 10:25:16;;;;;;;12.13;2.83;;;12.80;99.90;;;;;;5013464;28;20214;-87
2022/11/10 10:27:46;;;;;;;9.53;2.70;;;13.00;99.90;;;;;;5045796;28;20208;-86
2022/11/10 10:30:21;;;;;;;12.13;3.13;;;12.90;99.90;;;;;;5055129;28;20590;-88
2022/11/10 10:32:48;;;;;;;8.53;2.73;;;13.00;99.90;;;;;;5041093;28;20560;-87
2022/11/10 10:35:16;;;;;;;12.03;3.00;;;13.10;99.90;;;;;;5055168;28;20213;-87
2022/11/10 10:37:47;;;;;;;9.53;3.10;;;13.10;99.90;;;;;;5054752;28;20219;-86
2022/11/10 10:40:16;;;;;;;14.55;3.95;;;13.20;99.90;;;;;;5054050;28;20440;-86
2022/11/10 10:42:43;;;;;;;12.47;3.30;;;13.40;99.90;;;;;;5048302;28;20206;-87
2022/11/10 10:45:15;;;;;;;9.47;3.07;;;13.50;99.90;;;;;;5052820;28;20209;-86
2022/11/10 10:47:44;;;;;;;10.07;2.67;;;13.40;99.90;;;;;;5054247;28;20213;-87
2022/11/10 10:50:23;;;;;;;10.70;2.83;;;13.40;99.90;;;;;;5057937;28;20204;-88
2022/11/10 10:53:06;;;;;;;9.10;2.43;;;13.30;99.90;;;;;;5054498;28;20677;-86
2022/11/10 10:55:33;;;;;;;9.07;2.57;;;13.40;99.90;;;;;;5053472;28;20206;-87
2022/11/10 10:58:02;;;;;;;11.80;3.00;;;13.40;99.90;;;;;;5054446;28;20218;-86
2022/11/10 11:00:29;;;;;;;8.60;2.53;;;13.40;99.90;;;;;;5054204;28;20191;-88
2022/11/10 11:03:05;;;;;;;16.97;2.70;;;13.40;99.90;;;;;;5054631;28;20268;-87
2022/11/10 11:05:32;;;;;;;8.97;2.57;;;13.50;99.90;;;;;;5054134;28;20198;-88
2022/11/10 11:08:01;;;;;;;7.67;2.47;;;13.50;99.90;;;;;;5054461;28;20600;-88
2022/11/10 11:10:30;;;;;;;6.67;2.20;;;13.60;99.90;;;;;;5054633;28;20198;-88
2022/11/10 11:13:13;;;;;;;10.03;2.77;;;13.70;99.90;;;;;;5054749;28;20217;-88
2022/11/10 11:15:40;;;;;;;9.03;2.63;;;13.80;99.90;;;;;;5054421;28;20209;-89
2022/11/10 11:18:14;;;;;;;10.00;2.40;;;13.60;99.90;;;;;;5054122;28;20199;-89
2022/11/10 11:20:48;;;;;;;8.10;2.97;;;13.60;99.90;;;;;;5054045;28;20653;-88
2022/11/10 11:23:33;;;;;;;7.27;2.57;;;13.60;99.90;;;;;;5057894;28;20199;-88
2022/11/10 11:26:09;;;;;;;6.53;2.30;;;13.80;99.90;;;;;;5058395;28;20206;-88
2022/11/10 11:28:44;;;;;;;6.47;2.30;;;13.90;99.90;;;;;;5052954;28;20232;-85
2022/11/10 11:31:19;;;;;;;13.60;2.83;;;13.90;99.90;;;;;;5053679;28;20556;-86
2022/11/10 11:34:01;;;;;;;4.70;2.03;;;14.10;99.90;;;;;;5052132;28;20201;-84
2022/11/10 11:36:39;;;;;;;5.50;2.00;;;14.10;99.90;;;;;;5038955;28;20579;-92
2022/11/10 11:39:20;;;;;;;9.37;2.20;;;14.00;99.90;;;;;;5056134;28;20202;-88
2022/11/10 11:41:54;;;;;;;8.57;2.60;;;14.20;99.90;;;;;;5051407;28;20453;-88
2022/11/10 11:44:50;;;;;;;6.90;2.50;;;14.30;99.90;;;;;;5053395;28;20211;-88
2022/11/10 11:47:33;;;;;;;9.67;2.30;;;14.40;99.90;;;;;;5053910;28;20212;-86
2022/11/10 11:50:10;;;;;;;9.43;2.43;;;14.50;99.90;;;;;;5053824;28;20210;-90
2022/11/10 11:52:44;;;;;;;7.78;2.65;;;14.60;99.90;;;;;;5053760;28;20437;-90
2022/11/10 11:55:22;;;;;;;7.20;2.13;;;14.60;99.90;;;;;;5054371;28;20229;-90
2022/11/10 11:58:30;;;;;;;7.47;2.60;;;14.60;99.90;;;;;;5054058;28;20274;-90
2022/11/10 12:01:07;;;;;;;5.70;2.10;;;14.60;99.90;;;;;;5063991;28;20261;-90
2022/11/10 12:04:00;;;;;;;13.03;2.80;;;14.70;99.90;;;;;;5054690;28;20213;-90
2022/11/10 12:06:36;;;;;;;5.87;2.13;;;14.60;99.90;;;;;;5055056;28;20240;-90
2022/11/10 12:09:11;;;;;;;4.57;2.13;;;14.70;99.90;;;;;;5045783;28;20657;-89
2022/11/10 12:11:59;;;;;;;5.83;1.83;;;14.70;99.90;;;;;;5065423;28;20208;-87
2022/11/10 12:14:43;;;;;;;5.10;1.90;;;14.70;99.90;;;;;;5060426;28;20207;-88
2022/11/10 12:17:22;;;;;;;6.70;2.67;;;14.80;99.90;;;;;;5059301;28;20780;-83
2022/11/10 12:20:00;;;;;;;6.50;2.47;;;14.80;99.90;;;;;;5059501;28;20207;-83
2022/11/10 12:22:38;;;;;;;7.07;2.40;;;14.90;99.90;;;;;;5059363;28;20239;-85
2022/11/10 12:25:17;;;;;;;5.97;2.17;;;15.00;99.90;;;;;;5059635;28;20200;-84
2022/11/10 12:27:49;;;;;;;7.63;2.80;;;15.10;99.90;;;;;;5046398;28;20210;-83
2022/11/10 12:30:18;;;;;;;4.23;1.70;;;15.00;99.90;;;;;;5059634;28;20209;-83
2022/11/10 12:32:48;;;;;;;6.73;2.03;;;15.10;99.90;;;;;;5050162;28;20224;-89
2022/11/10 12:35:20;;;;;;;7.47;2.00;;;15.10;99.90;;;;;;5060051;28;20223;-87
2022/11/10 12:37:54;;;;;;;4.82;2.30;;;15.10;99.90;;;;;;5059633;28;20432;-86
2022/11/10 12:40:22;;;;;;;6.37;1.67;;;15.20;99.90;;;;;;5059971;28;20204;-87
2022/11/10 12:42:56;;;;;;;7.73;1.80;;;15.20;99.90;;;;;;5059600;28;20242;-86
2022/11/10 12:45:27;;;;;;;5.93;1.80;;;15.20;99.90;;;;;;5059641;28;20542;-84
2022/11/10 12:47:55;;;;;;;5.77;2.03;;;15.10;99.90;;;;;;5059147;28;20218;-84
2022/11/10 12:50:45;;;;;;;5.57;2.20;;;15.20;99.90;;;;;;5059601;28;20265;-82
2022/11/10 12:53:21;;;;;;;8.40;1.63;;;15.10;99.90;;;;;;5059122;28;20203;-84
2022/11/10 12:55:53;;;;;;;8.00;1.83;;;15.00;99.90;;;;;;5058977;28;20298;-84
2022/11/10 12:58:19;;;;;;;9.30;1.63;;;15.00;99.90;;;;;;5059170;28;20202;-84
2022/11/10 13:00:59;;;;;;;7.43;2.35;;;14.90;99.90;;;;;;5059019;28;20430;-85
2022/11/10 13:03:28;;;;;;;7.10;1.80;;;15.00;99.90;;;;;;5059161;28;20209;-84
2022/11/10 13:05:57;;;;;;;7.07;2.07;;;15.00;99.90;;;;;;5058597;28;20227;-82
2022/11/10 13:08:33;;;;;;;5.07;1.63;;;15.10;99.90;;;;;;5058937;28;20568;-84
2022/11/10 13:11:06;;;;;;;6.90;1.77;;;15.10;99.90;;;;;;5058681;28;20202;-84